createdAt,value
2023-02-11T00:02:14.148Z,102456.41
2023-02-11T00:04:42.124Z,102444.06
2023-02-11T00:07:09.741Z,102450.28
2023-02-11T00:09:38.505Z,102452.75
2023-02-11T00:12:08.448Z,102460.94
2023-02-11T00:14:36.059Z,102468.16
2023-02-11T00:17:03.912Z,102482.81
2023-02-11T00:19:33.862Z,102476.69
2023-02-11T00:22:01.552Z,102448.84
2023-02-11T00:24:30.082Z,102460.47
2023-02-11T00:26:57.706Z,102480.00
2023-02-11T00:29:27.814Z,102484.91
2023-02-11T00:31:55.817Z,102474.88
2023-02-11T00:34:23.499Z,102455.94
2023-02-11T00:36:52.444Z,102459.09
2023-02-11T00:39:20.046Z,102472.81
2023-02-11T00:41:47.667Z,102473.16
2023-02-11T00:44:15.365Z,102467.78
2023-02-11T00:46:43.183Z,102495.31
2023-02-11T00:49:11.312Z,102492.34
2023-02-11T00:51:39.096Z,102493.31
2023-02-11T00:54:08.819Z,102494.19
2023-02-11T00:56:36.944Z,102494.69
2023-02-11T00:59:04.732Z,102502.53
2023-02-11T01:01:32.366Z,102505.09
2023-02-11T01:04:00.570Z,102502.63
2023-02-11T01:06:28.217Z,102498.13
2023-02-11T01:08:55.814Z,102493.31
2023-02-11T01:11:24.910Z,102489.91
2023-02-11T01:13:52.672Z,102491.16
2023-02-11T01:16:21.692Z,102494.78
2023-02-11T01:18:49.698Z,102491.13
2023-02-11T01:21:17.752Z,102487.59
2023-02-11T01:23:45.491Z,102488.81
2023-02-11T01:26:13.201Z,102471.56
2023-02-11T01:28:43.257Z,102457.25
2023-02-11T01:31:11.268Z,102461.19
2023-02-11T01:33:39.007Z,102448.84
2023-02-11T01:36:07.774Z,102436.97
2023-02-11T01:38:36.309Z,102447.13
2023-02-11T01:41:06.215Z,102448.84
2023-02-11T01:43:37.041Z,102434.53
2023-02-11T01:46:25.591Z,102414.50
2023-02-11T01:48:58.658Z,102407.03
2023-02-11T01:51:32.503Z,102393.38
2023-02-11T01:54:19.347Z,102387.38
2023-02-11T01:57:10.376Z,102381.78
2023-02-11T01:59:43.315Z,102375.94
2023-02-11T02:02:16.806Z,102384.47
2023-02-11T02:04:53.166Z,102382.16
2023-02-11T02:07:29.350Z,102386.16
2023-02-11T02:10:01.330Z,102382.50
2023-02-11T02:12:29.023Z,102379.53
2023-02-11T02:15:19.958Z,102390.78
2023-02-11T02:18:00.299Z,102380.41
2023-02-11T02:20:53.699Z,102380.03
2023-02-11T02:23:33.292Z,102375.25
2023-02-11T02:26:35.018Z,102376.50
2023-02-11T02:29:20.574Z,102374.44
2023-02-11T02:32:14.825Z,102378.84
2023-02-11T02:34:52.756Z,102379.44
2023-02-11T02:37:28.216Z,102389.09
2023-02-11T02:39:57.967Z,102394.69
2023-02-11T02:42:26.100Z,102378.34
2023-02-11T02:44:56.368Z,102357.41
2023-02-11T02:47:24.130Z,102354.84
2023-02-11T02:49:53.097Z,102347.53
2023-02-11T02:52:35.849Z,102345.06
2023-02-11T02:55:11.566Z,102356.28
2023-02-11T02:57:50.782Z,102346.50
2023-02-11T03:00:28.345Z,102358.13
2023-02-11T03:03:15.872Z,102361.03
2023-02-11T03:05:51.415Z,102357.50
2023-02-11T03:08:29.878Z,102350.69
2023-02-11T03:10:58.660Z,102348.00
2023-02-11T03:13:34.929Z,102340.63
2023-02-11T03:16:08.061Z,102336.00
2023-02-11T03:18:39.168Z,102330.00
2023-02-11T03:21:12.028Z,102336.69
2023-02-11T03:23:45.561Z,102337.44
2023-02-11T03:26:17.086Z,102324.69
2023-02-11T03:28:52.510Z,102322.59
2023-02-11T03:31:28.176Z,102321.75
2023-02-11T03:34:00.453Z,102323.56
2023-02-11T03:36:36.890Z,102316.47
2023-02-11T03:39:07.256Z,102309.66
2023-02-11T03:41:36.480Z,102314.19
2023-02-11T03:44:07.094Z,102315.50
2023-02-11T03:46:39.998Z,102322.34
2023-02-11T03:49:13.052Z,102328.59
2023-02-11T03:51:42.249Z,102326.13
2023-02-11T03:54:14.449Z,102322.75
2023-02-11T03:56:47.787Z,102328.72
2023-02-11T03:59:16.731Z,102320.50
2023-02-11T04:01:44.538Z,102329.28
2023-02-11T04:04:12.300Z,102319.97
2023-02-11T04:06:40.204Z,102319.97
2023-02-11T04:09:09.245Z,102335.88
2023-02-11T04:11:37.098Z,102342.28
2023-02-11T04:14:05.062Z,102342.03
2023-02-11T04:16:32.718Z,102332.25
2023-02-11T04:19:01.500Z,102336.78
2023-02-11T04:21:29.261Z,102334.81
2023-02-11T04:23:56.928Z,102336.25
2023-02-11T04:26:26.102Z,102331.88
2023-02-11T04:28:53.704Z,102335.78
2023-02-11T04:31:22.550Z,102333.09
2023-02-11T04:33:50.291Z,102335.78
2023-02-11T04:36:17.956Z,102335.44
2023-02-11T04:38:45.888Z,102336.91
2023-02-11T04:41:13.528Z,102333.38
2023-02-11T04:43:42.612Z,102333.97
2023-02-11T04:46:11.157Z,102341.28
2023-02-11T04:48:38.891Z,102333.97
2023-02-11T04:51:09.323Z,102340.66
2023-02-11T04:53:39.126Z,102336.72
2023-02-11T04:56:07.118Z,102343.22
2023-02-11T04:58:34.751Z,102346.16
2023-02-11T05:01:08.117Z,102343.75
2023-02-11T05:03:37.781Z,102350.25
2023-02-11T05:06:08.277Z,102339.47
2023-02-11T05:08:35.925Z,102337.81
2023-02-11T05:11:03.800Z,102333.31
2023-02-11T05:13:32.266Z,102329.63
2023-02-11T05:15:59.973Z,102321.16
2023-02-11T05:18:29.110Z,102319.59
2023-02-11T05:20:57.367Z,102324.25
2023-02-11T05:23:25.005Z,102331.94
2023-02-11T05:25:52.855Z,102337.59
2023-02-11T05:28:20.651Z,102340.38
2023-02-11T05:30:48.319Z,102341.72
2023-02-11T05:33:18.403Z,102343.41
2023-02-11T05:35:47.403Z,102326.56
2023-02-11T05:38:17.719Z,102328.50
2023-02-11T05:40:45.405Z,102327.53
2023-02-11T05:43:13.314Z,102334.34
2023-02-11T05:45:41.189Z,102330.81
2023-02-11T05:48:11.169Z,102321.78
2023-02-11T05:50:38.807Z,102326.69
2023-02-11T05:53:08.723Z,102323.13
2023-02-11T05:55:36.681Z,102322.16
2023-02-11T05:58:04.889Z,102320.19
2023-02-11T06:00:32.548Z,102316.75
2023-02-11T06:03:00.422Z,102314.06
2023-02-11T06:05:28.690Z,102309.16
2023-02-11T06:07:56.453Z,102319.66
2023-02-11T06:10:25.418Z,102325.03
2023-02-11T06:12:55.129Z,102315.28
2023-02-11T06:15:22.893Z,102316.84
2023-02-11T06:17:50.534Z,102316.25
2023-02-11T06:20:18.240Z,102317.38
2023-02-11T06:22:46.902Z,102330.31
2023-02-11T06:25:15.683Z,102330.88
2023-02-11T06:27:44.969Z,102328.03
2023-02-11T06:30:13.425Z,102321.81
2023-02-11T06:32:45.468Z,102323.06
2023-02-11T06:35:14.392Z,102335.28
2023-02-11T06:37:42.598Z,102325.13
2023-02-11T06:40:11.376Z,102329.44
2023-02-11T06:42:39.533Z,102335.00
2023-02-11T06:45:10.818Z,102327.94
2023-02-11T06:47:38.483Z,102337.00
2023-02-11T06:50:08.030Z,102333.09
2023-02-11T06:52:35.750Z,102328.31
2023-02-11T06:55:03.545Z,102337.22
2023-02-11T06:57:31.739Z,102334.31
2023-02-11T06:59:59.404Z,102331.59
2023-02-11T07:02:28.369Z,102332.44
2023-02-11T07:04:56.084Z,102329.53
2023-02-11T07:07:24.121Z,102337.19
2023-02-11T07:09:52.046Z,102331.78
2023-02-11T07:12:19.935Z,102346.97
2023-02-11T07:14:47.568Z,102340.84
2023-02-11T07:17:15.475Z,102354.31
2023-02-11T07:19:44.504Z,102355.28
2023-02-11T07:22:12.452Z,102352.41
2023-02-11T07:24:40.485Z,102346.78
2023-02-11T07:27:08.217Z,102352.41
2023-02-11T07:29:38.099Z,102339.09
2023-02-11T07:32:06.602Z,102356.94
2023-02-11T07:34:35.420Z,102350.44
2023-02-11T07:37:04.698Z,102351.28
2023-02-11T07:39:32.630Z,102349.84
2023-02-11T07:42:02.449Z,102349.19
2023-02-11T07:44:30.387Z,102350.31
2023-02-11T07:46:58.206Z,102353.38
2023-02-11T07:49:25.986Z,102363.91
2023-02-11T07:51:53.731Z,102363.16
2023-02-11T07:54:23.299Z,102359.97
2023-02-11T07:56:53.103Z,102367.25
2023-02-11T07:59:21.991Z,102374.06
2023-02-11T08:01:51.413Z,102365.53
2023-02-11T08:04:19.272Z,102364.09
2023-02-11T08:06:46.957Z,102359.03
2023-02-11T08:09:17.547Z,102359.63
2023-02-11T08:11:46.538Z,102360.66
2023-02-11T08:14:14.205Z,102363.25
2023-02-11T08:16:42.684Z,102350.50
2023-02-11T08:19:13.563Z,102351.09
2023-02-11T08:21:41.843Z,102353.38
2023-02-11T08:24:09.594Z,102360.47
2023-02-11T08:26:37.644Z,102340.38
2023-02-11T08:29:10.994Z,102365.47
2023-02-11T08:31:41.352Z,102349.97
2023-02-11T08:34:10.663Z,102364.41
2023-02-11T08:36:40.069Z,102358.19
2023-02-11T08:39:19.191Z,102367.13
2023-02-11T08:41:48.666Z,102375.06
2023-02-11T08:44:17.833Z,102383.13
2023-02-11T08:46:45.559Z,102383.41
2023-02-11T08:49:13.287Z,102385.13
2023-02-11T08:51:41.090Z,102384.13
2023-02-11T08:54:09.813Z,102395.16
2023-02-11T08:56:38.184Z,102383.69
2023-02-11T08:59:06.289Z,102380.28
2023-02-11T09:01:36.460Z,102397.50
2023-02-11T09:04:04.263Z,102401.91
2023-02-11T09:06:33.057Z,102399.38
2023-02-11T09:09:00.824Z,102403.63
2023-02-11T09:11:31.551Z,102409.81
2023-02-11T09:14:00.387Z,102412.81
2023-02-11T09:16:30.274Z,102399.72
2023-02-11T09:19:00.782Z,102397.97
2023-02-11T09:21:29.640Z,102399.69
2023-02-11T09:23:57.737Z,102404.88
2023-02-11T09:26:27.867Z,102407.13
2023-02-11T09:28:57.589Z,102406.84
2023-02-11T09:31:28.126Z,102420.69
2023-02-11T09:33:58.125Z,102416.78
2023-02-11T09:36:30.323Z,102426.28
2023-02-11T09:39:00.172Z,102428.97
2023-02-11T09:41:42.321Z,102422.59
2023-02-11T09:44:19.354Z,102431.41
2023-02-11T09:46:54.428Z,102432.25
2023-02-11T09:49:28.271Z,102448.72
2023-02-11T09:52:03.871Z,102438.81
2023-02-11T09:54:38.640Z,102460.69
2023-02-11T09:57:10.535Z,102473.69
2023-02-11T09:59:42.258Z,102459.97
2023-02-11T10:02:18.066Z,102473.44
2023-02-11T10:05:00.263Z,102471.63
2023-02-11T10:07:38.698Z,102475.28
2023-02-11T10:10:16.553Z,102467.47
2023-02-11T10:13:03.851Z,102468.31
2023-02-11T10:15:44.150Z,102475.00
2023-02-11T10:18:32.012Z,102481.13
2023-02-11T10:21:13.929Z,102480.34
2023-02-11T10:23:47.885Z,102485.69
2023-02-11T10:26:19.751Z,102492.03
2023-02-11T10:28:55.328Z,102470.81
2023-02-11T10:31:28.369Z,102466.56
2023-02-11T10:34:01.327Z,102476.44
2023-02-11T10:36:35.520Z,102478.34
2023-02-11T10:39:17.048Z,102479.09
2023-02-11T10:41:49.188Z,102484.81
2023-02-11T10:44:28.582Z,102478.16
2023-02-11T10:47:01.461Z,102476.19
2023-02-11T10:49:40.164Z,102482.56
2023-02-11T10:52:25.445Z,102482.53
2023-02-11T10:55:04.080Z,102490.19
2023-02-11T10:57:35.886Z,102495.91
2023-02-11T11:00:20.919Z,102492.38
2023-02-11T11:02:56.604Z,102490.38
2023-02-11T11:05:30.844Z,102484.16
2023-02-11T11:08:00.390Z,102481.00
2023-02-11T11:10:43.161Z,102486.19
2023-02-11T11:13:28.836Z,102480.16
2023-02-11T11:16:24.339Z,102480.28
2023-02-11T11:18:54.457Z,102487.69
2023-02-11T11:21:26.827Z,102483.03
2023-02-11T11:23:59.960Z,102495.53
2023-02-11T11:26:40.610Z,102491.41
2023-02-11T11:29:14.456Z,102490.06
2023-02-11T11:31:49.579Z,102491.72
2023-02-11T11:34:24.033Z,102490.31
2023-02-11T11:36:51.910Z,102486.84
2023-02-11T11:39:23.227Z,102489.72
2023-02-11T11:41:59.543Z,102495.03
2023-02-11T11:44:30.918Z,102491.59
2023-02-11T11:47:18.421Z,102499.16
2023-02-11T11:49:51.912Z,102500.19
2023-02-11T11:52:27.856Z,102500.06
2023-02-11T11:55:01.843Z,102496.50
2023-02-11T11:57:32.567Z,102481.88
2023-02-11T12:00:00.195Z,102485.38
2023-02-11T12:02:58.244Z,102477.28
2023-02-11T12:05:28.882Z,102471.78
2023-02-11T12:08:09.379Z,102477.69
2023-02-11T12:10:49.773Z,102477.44
2023-02-11T12:13:31.488Z,102476.53
2023-02-11T12:16:09.954Z,102474.22
2023-02-11T12:18:52.392Z,102474.53
2023-02-11T12:21:30.438Z,102477.50
2023-02-11T12:24:17.583Z,102468.59
2023-02-11T12:26:48.845Z,102475.72
2023-02-11T12:29:28.338Z,102481.63
2023-02-11T12:32:08.538Z,102479.91
2023-02-11T12:34:47.217Z,102480.56
2023-02-11T12:37:33.136Z,102486.66
2023-02-11T12:40:10.893Z,102487.94
2023-02-11T12:43:08.595Z,102495.88
2023-02-11T12:45:50.448Z,102502.72
2023-02-11T12:48:35.905Z,102497.59
2023-02-11T12:51:12.909Z,102493.03
2023-02-11T12:54:00.124Z,102497.56
2023-02-11T12:56:36.877Z,102500.69
2023-02-11T12:59:08.987Z,102495.28
2023-02-11T13:01:41.655Z,102485.38
2023-02-11T13:04:16.823Z,102476.16
2023-02-11T13:06:47.697Z,102476.88
2023-02-11T13:09:21.914Z,102476.03
2023-02-11T13:11:52.715Z,102481.69
2023-02-11T13:14:27.737Z,102489.47
2023-02-11T13:16:58.413Z,102493.31
2023-02-11T13:19:34.201Z,102495.28
2023-02-11T13:22:09.262Z,102493.31
2023-02-11T13:24:44.680Z,102493.50
2023-02-11T13:27:25.748Z,102483.00
2023-02-11T13:30:24.115Z,102491.53
2023-02-11T13:33:18.194Z,102491.84
2023-02-11T13:35:51.068Z,102482.47
2023-02-11T13:38:22.392Z,102498.34
2023-02-11T13:41:03.894Z,102490.88
2023-02-11T13:43:33.659Z,102495.84
2023-02-11T13:46:03.651Z,102500.06
2023-02-11T13:48:36.712Z,102497.25
2023-02-11T13:51:07.598Z,102490.59
2023-02-11T13:53:47.505Z,102492.44
2023-02-11T13:56:30.565Z,102480.56
2023-02-11T13:59:02.169Z,102487.38
2023-02-11T14:01:41.707Z,102500.31
2023-02-11T14:04:53.478Z,102510.22
2023-02-11T14:07:47.613Z,102519.81
2023-02-11T14:10:50.840Z,102512.59
2023-02-11T14:13:24.381Z,102512.91
2023-02-11T14:16:04.969Z,102504.38
2023-02-11T14:19:00.766Z,102505.22
2023-02-11T14:21:36.382Z,102499.81
2023-02-11T14:24:46.261Z,102505.22
2023-02-11T14:27:21.234Z,102503.13
2023-02-11T14:30:02.487Z,102496.28
2023-02-11T14:32:42.856Z,102496.28
2023-02-11T14:35:18.203Z,102503.66
2023-02-11T14:37:54.372Z,102512.19
2023-02-11T14:40:30.261Z,102513.06
2023-02-11T14:43:02.733Z,102519.44
2023-02-11T14:45:31.484Z,102526.25
2023-02-11T14:48:04.174Z,102514.94
2023-02-11T14:50:39.788Z,102517.31
2023-02-11T14:53:15.744Z,102521.31
2023-02-11T14:55:46.605Z,102514.06
2023-02-11T14:58:17.812Z,102517.88
2023-02-11T15:00:58.383Z,102520.03
2023-02-11T15:03:37.380Z,102524.97
2023-02-11T15:06:08.794Z,102533.50
2023-02-11T15:08:42.982Z,102541.47
2023-02-11T15:11:14.522Z,102540.06
2023-02-11T15:13:47.359Z,102546.44
2023-02-11T15:16:18.435Z,102557.38
2023-02-11T15:18:50.068Z,102558.56
2023-02-11T15:21:22.705Z,102563.94
2023-02-11T15:24:01.786Z,102571.31
2023-02-11T15:26:29.982Z,102563.66
2023-02-11T15:28:57.700Z,102578.81
2023-02-11T15:31:27.265Z,102576.00
2023-02-11T15:33:55.451Z,102572.16
2023-02-11T15:36:28.497Z,102570.78
2023-02-11T15:39:31.357Z,102572.06
2023-02-11T15:42:17.420Z,102569.50
2023-02-11T15:44:45.394Z,102575.03
2023-02-11T15:47:14.629Z,102577.47
2023-02-11T15:49:46.145Z,102585.28
2023-02-11T15:52:15.281Z,102579.63
2023-02-11T15:54:47.351Z,102581.44
2023-02-11T15:57:16.319Z,102592.25
2023-02-11T15:59:48.172Z,102579.63
2023-02-11T16:02:18.728Z,102578.91
2023-02-11T16:04:52.149Z,102571.69
2023-02-11T16:07:39.815Z,102567.81
2023-02-11T16:10:23.460Z,102568.53
2023-02-11T16:12:58.028Z,102580.16
2023-02-11T16:15:34.059Z,102578.31
2023-02-11T16:18:03.457Z,102581.44
2023-02-11T16:20:31.691Z,102571.47
2023-02-11T16:22:59.571Z,102571.63
2023-02-11T16:25:28.642Z,102575.19
2023-02-11T16:27:56.470Z,102571.03
2023-02-11T16:30:30.512Z,102582.53
2023-02-11T16:32:58.410Z,102569.88
2023-02-11T16:35:26.528Z,102571.72
2023-02-11T16:37:54.826Z,102570.47
2023-02-11T16:40:26.082Z,102574.81
2023-02-11T16:42:55.861Z,102578.56
2023-02-11T16:45:23.985Z,102569.59
2023-02-11T16:47:51.854Z,102568.88
2023-02-11T16:50:25.572Z,102577.81
2023-02-11T16:52:53.409Z,102582.41
2023-02-11T16:55:22.274Z,102582.81
2023-02-11T16:57:50.997Z,102590.03
2023-02-11T17:00:23.447Z,102592.28
2023-02-11T17:02:51.170Z,102593.72
2023-02-11T17:05:22.839Z,102593.34
2023-02-11T17:07:50.731Z,102586.38
2023-02-11T17:10:20.278Z,102597.75
2023-02-11T17:12:48.716Z,102604.13
2023-02-11T17:15:16.561Z,102616.50
2023-02-11T17:17:45.803Z,102611.81
2023-02-11T17:20:15.238Z,102610.13
2023-02-11T17:22:45.272Z,102612.81
2023-02-11T17:25:13.391Z,102606.69
2023-02-11T17:27:41.587Z,102606.31
2023-02-11T17:30:10.366Z,102609.31
2023-02-11T17:32:38.202Z,102616.53
2023-02-11T17:35:08.049Z,102623.63
2023-02-11T17:37:35.735Z,102626.19
2023-02-11T17:40:03.334Z,102636.53
2023-02-11T17:42:31.227Z,102643.75
2023-02-11T17:44:58.883Z,102647.69
2023-02-11T17:47:26.849Z,102639.94
2023-02-11T17:49:54.570Z,102647.47
2023-02-11T17:52:24.191Z,102641.94
2023-02-11T17:54:51.947Z,102639.00
2023-02-11T17:57:22.316Z,102645.38
2023-02-11T17:59:50.269Z,102650.91
2023-02-11T18:02:18.534Z,102652.63
2023-02-11T18:04:46.738Z,102660.28
2023-02-11T18:07:14.504Z,102664.19
2023-02-11T18:09:44.801Z,102666.88
2023-02-11T18:12:12.494Z,102674.69
2023-02-11T18:14:44.546Z,102672.00
2023-02-11T18:17:12.603Z,102670.28
2023-02-11T18:19:40.664Z,102668.56
2023-02-11T18:22:09.629Z,102670.56
2023-02-11T18:24:37.298Z,102665.72
2023-02-11T18:27:08.740Z,102677.84
2023-02-11T18:29:36.866Z,102674.91
2023-02-11T18:32:04.813Z,102689.38
2023-02-11T18:34:32.952Z,102679.13
2023-02-11T18:37:01.014Z,102683.25
2023-02-11T18:39:30.488Z,102684.38
2023-02-11T18:41:58.864Z,102680.81
2023-02-11T18:44:28.322Z,102689.91
2023-02-11T18:46:57.184Z,102707.78
2023-02-11T18:49:24.908Z,102707.78
2023-02-11T18:51:53.170Z,102704.97
2023-02-11T18:54:23.793Z,102702.88
2023-02-11T18:56:51.730Z,102690.44
2023-02-11T18:59:20.182Z,102688.63
2023-02-11T19:01:49.387Z,102682.22
2023-02-11T19:04:20.253Z,102682.81
2023-02-11T19:06:49.644Z,102683.25
2023-02-11T19:09:19.702Z,102677.84
2023-02-11T19:11:54.124Z,102682.81
2023-02-11T19:14:23.910Z,102683.78
2023-02-11T19:16:55.618Z,102682.66
2023-02-11T19:19:28.760Z,102701.19
2023-02-11T19:21:57.382Z,102701.47
2023-02-11T19:24:25.522Z,102710.53
2023-02-11T19:26:56.934Z,102717.31
2023-02-11T19:29:25.656Z,102715.22
2023-02-11T19:31:57.681Z,102706.88
2023-02-11T19:34:28.216Z,102703.97
2023-02-11T19:36:59.560Z,102707.69
2023-02-11T19:39:28.733Z,102716.03
2023-02-11T19:41:57.502Z,102720.97
2023-02-11T19:44:27.182Z,102721.09
2023-02-11T19:46:57.445Z,102723.22
2023-02-11T19:49:32.062Z,102722.50
2023-02-11T19:52:02.596Z,102736.16
2023-02-11T19:54:33.866Z,102750.34
2023-02-11T19:57:03.049Z,102741.75
2023-02-11T19:59:32.796Z,102735.50
2023-02-11T20:02:01.437Z,102736.72
2023-02-11T20:04:38.054Z,102739.81
2023-02-11T20:07:06.022Z,102737.81
2023-02-11T20:09:33.913Z,102734.78
2023-02-11T20:12:01.894Z,102740.78
2023-02-11T20:14:31.461Z,102738.22
2023-02-11T20:16:59.587Z,102746.44
2023-02-11T20:19:38.169Z,102746.59
2023-02-11T20:22:07.808Z,102751.25
2023-02-11T20:24:38.460Z,102761.59
2023-02-11T20:27:08.292Z,102764.28
2023-02-11T20:29:36.652Z,102757.63
2023-02-11T20:32:05.207Z,102757.50
2023-02-11T20:34:35.940Z,102761.72
2023-02-11T20:37:06.072Z,102751.75
2023-02-11T20:39:37.190Z,102759.03
2023-02-11T20:42:06.442Z,102764.56
2023-02-11T20:44:36.898Z,102763.09
2023-02-11T20:47:07.494Z,102763.09
2023-02-11T20:49:35.741Z,102762.00
2023-02-11T20:52:08.221Z,102762.09
2023-02-11T20:54:40.753Z,102770.09
2023-02-11T20:57:11.175Z,102766.38
2023-02-11T20:59:41.101Z,102779.88
2023-02-11T21:02:12.412Z,102786.00
2023-02-11T21:04:40.787Z,102788.09
2023-02-11T21:07:08.582Z,102790.44
2023-02-11T21:09:36.318Z,102798.38
2023-02-11T21:12:06.644Z,102799.50
2023-02-11T21:14:34.641Z,102798.66
2023-02-11T21:17:02.416Z,102802.06
2023-02-11T21:19:30.169Z,102816.28
2023-02-11T21:22:00.748Z,102817.00
2023-02-11T21:24:30.710Z,102807.47
2023-02-11T21:26:59.839Z,102807.47
2023-02-11T21:29:30.504Z,102806.94
2023-02-11T21:31:59.105Z,102811.13
2023-02-11T21:34:26.835Z,102823.31
2023-02-11T21:36:54.587Z,102817.41
2023-02-11T21:39:23.957Z,102825.22
2023-02-11T21:41:52.151Z,102832.22
2023-02-11T21:44:20.084Z,102824.25
2023-02-11T21:46:51.815Z,102818.00
2023-02-11T21:49:20.163Z,102833.06
2023-02-11T21:51:47.994Z,102837.16
2023-02-11T21:54:15.849Z,102843.19
2023-02-11T21:56:48.477Z,102853.41
2023-02-11T21:59:18.121Z,102856.53
2023-02-11T22:01:47.068Z,102865.78
2023-02-11T22:04:17.028Z,102850.31
2023-02-11T22:06:45.217Z,102858.81
2023-02-11T22:09:12.900Z,102852.53
2023-02-11T22:11:40.753Z,102866.91
2023-02-11T22:14:08.856Z,102863.94
2023-02-11T22:16:37.289Z,102871.03
2023-02-11T22:19:07.333Z,102873.75
2023-02-11T22:21:39.750Z,102866.50
2023-02-11T22:24:07.978Z,102873.00
2023-02-11T22:26:38.424Z,102882.53
2023-02-11T22:29:08.799Z,102881.56
2023-02-11T22:31:38.984Z,102879.38
2023-02-11T22:34:07.137Z,102887.38
2023-02-11T22:36:37.517Z,102890.66
2023-02-11T22:39:10.331Z,102893.81
2023-02-11T22:41:39.246Z,102888.56
2023-02-11T22:44:10.444Z,102894.56
2023-02-11T22:46:40.263Z,102906.19
2023-02-11T22:49:09.822Z,102900.53
2023-02-11T22:51:37.663Z,102892.09
2023-02-11T22:54:11.353Z,102888.94
2023-02-11T22:56:39.054Z,102903.03
2023-02-11T22:59:08.975Z,102908.06
